Time;durP1;ratioP1;P1;durP2;ratioP2;P2;SDS_P1;SDS_P2;PMS_P1;PMS_P2;Temp;Humidity;BMP_temperature;BMP_pressure;BME280_temperature;BME280_humidity;BME280_pressure;Samples;Min_cycle;Max_cycle;Signal;HPM_P1;HPM_P2
2022/05/03 00:00:03;;;;;;;5.03;2.87;;;;;;;15.13;55.20;99743.88;4345047;33;32452;-85
2022/05/03 00:02:53;;;;;;;4.07;2.67;;;;;;;15.23;54.94;99746.81;4351425;32;33614;-85
2022/05/03 00:05:43;;;;;;;3.78;2.65;;;;;;;15.09;55.57;99735.22;4349755;32;33353;-85
2022/05/03 00:08:24;;;;;;;3.97;2.85;;;;;;;15.17;55.76;99737.41;4347827;32;32968;-85
2022/05/03 00:10:54;;;;;;;4.03;3.17;;;;;;;15.27;55.20;99738.53;4357787;32;33371;-86
2022/05/03 00:13:28;;;;;;;4.18;2.97;;;;;;;15.28;55.26;99734.06;4351974;32;33928;-85
2022/05/03 00:15:57;;;;;;;3.83;2.47;;;;;;;15.22;55.38;99735.31;4325802;32;33405;-88
2022/05/03 00:18:25;;;;;;;6.03;2.95;;;;;;;15.25;55.30;99734.28;4336044;32;32834;-87
2022/05/03 00:20:53;;;;;;;3.78;2.87;;;;;;;15.20;55.52;99736.38;4355841;32;32203;-87
2022/05/03 00:23:22;;;;;;;4.12;3.22;;;;;;;15.32;55.09;99733.78;4340142;33;33782;-87
2022/05/03 00:25:51;;;;;;;3.37;2.62;;;;;;;15.19;55.56;99740.84;4355133;32;33288;-88
2022/05/03 00:28:19;;;;;;;3.37;2.72;;;;;;;15.20;55.56;99728.41;4339854;33;32919;-86
2022/05/03 00:30:49;;;;;;;3.65;2.75;;;;;;;15.03;56.00;99726.81;4332571;33;33292;-85
2022/05/03 00:33:19;;;;;;;5.72;2.87;;;;;;;15.07;55.74;99723.84;4348637;32;32352;-85
2022/05/03 00:35:52;;;;;;;3.77;2.60;;;;;;;15.08;55.77;99722.91;4345510;32;33153;-85
2022/05/03 00:38:20;;;;;;;4.80;3.10;;;;;;;15.14;55.93;99728.78;4344819;32;33096;-85
2022/05/03 00:45:36;;;;;;;5.12;2.90;;;;;;;15.21;55.88;99719.47;4363962;32;34636;-85
2022/05/03 00:48:22;;;;;;;4.18;2.95;;;;;;;15.06;56.46;99723.97;4315147;32;32688;-85
2022/05/03 00:51:13;;;;;;;5.32;3.45;;;;;;;15.00;56.62;99722.56;4362121;32;32332;-87
2022/05/03 00:53:53;;;;;;;4.30;3.15;;;;;;;14.96;56.92;99728.16;4348248;32;34010;-85
2022/05/03 00:56:30;;;;;;;5.72;3.00;;;;;;;14.96;56.93;99720.19;4349600;32;32641;-92
2022/05/03 00:59:49;;;;;;;4.20;3.37;;;;;;;14.88;57.01;99725.97;4345064;32;32545;-89
2022/05/03 01:02:27;;;;;;;3.47;2.58;;;;;;;15.00;56.62;99714.56;4332300;33;32727;-89
2022/05/03 01:05:51;;;;;;;6.07;2.67;;;;;;;15.08;56.24;99722.03;4330025;32;33627;-89
2022/05/03 01:08:56;;;;;;;4.37;2.87;;;;;;;15.04;56.38;99716.06;4340881;32;32614;-90
2022/05/03 01:11:57;;;;;;;8.20;3.00;;;;;;;14.93;56.87;99720.38;4347577;32;34552;-90
2022/05/03 01:15:10;;;;;;;6.00;2.95;;;;;;;14.86;57.01;99725.22;4350978;32;33026;-90
2022/05/03 01:18:07;;;;;;;2.70;2.47;;;;;;;14.87;57.15;99721.59;4318825;32;33131;-90
2022/05/03 01:20:47;;;;;;;3.33;2.92;;;;;;;14.97;56.95;99722.72;4340513;32;32451;-87
2022/05/03 01:23:27;;;;;;;5.20;3.40;;;;;;;14.84;57.39;99727.09;4335358;32;35188;-87
2022/05/03 01:26:32;;;;;;;3.22;2.78;;;;;;;14.98;57.17;99729.75;4335623;32;33474;-88
2022/05/03 01:29:06;;;;;;;5.28;2.55;;;;;;;14.75;58.16;99735.66;4339351;32;32929;-90
2022/05/03 01:32:00;;;;;;;3.42;2.90;;;;;;;14.75;58.12;99730.34;4348117;32;33077;-88
2022/05/03 01:34:29;;;;;;;3.33;2.53;;;;;;;14.78;57.96;99725.69;4322893;32;32760;-88
2022/05/03 01:37:00;;;;;;;3.53;2.70;;;;;;;14.70;58.01;99732.41;4338748;32;33852;-88
2022/05/03 01:39:55;;;;;;;3.50;2.70;;;;;;;14.74;57.87;99729.47;4338784;32;31984;-88
2022/05/03 01:42:53;;;;;;;3.67;3.00;;;;;;;14.65;57.76;99734.50;4332771;33;32994;-91
2022/05/03 01:45:42;;;;;;;7.07;2.12;;;;;;;14.54;57.64;99733.38;4314968;33;20945;-89
2022/05/03 01:48:13;;;;;;;4.22;2.40;;;;;;;14.58;57.48;99724.28;4340446;33;32449;-88
2022/05/03 01:50:45;;;;;;;4.20;2.80;;;;;;;14.56;57.57;99728.81;4336645;33;32173;-91
2022/05/03 01:53:43;;;;;;;4.53;2.58;;;;;;;14.48;57.91;99732.88;4357937;32;32558;-88
2022/05/03 01:56:33;;;;;;;2.40;2.20;;;;;;;14.57;57.66;99730.53;4343082;32;34132;-88
2022/05/03 01:59:04;;;;;;;4.55;2.90;;;;;;;14.55;57.71;99729.75;4355383;32;33498;-88
2022/05/03 02:01:39;;;;;;;2.78;2.20;;;;;;;14.41;58.35;99734.19;4352539;32;32946;-87
2022/05/03 02:04:43;;;;;;;2.75;2.22;;;;;;;14.41;58.63;99728.84;4350571;32;33541;-87
2022/05/03 02:07:48;;;;;;;5.40;2.75;;;;;;;14.44;58.50;99726.87;4356638;32;33413;-89
2022/05/03 02:10:51;;;;;;;2.85;2.45;;;;;;;14.40;58.31;99725.34;4320953;33;34404;-89
2022/05/03 02:17:18;;;;;;;5.05;2.58;;;;;;;14.35;58.77;99732.75;4333193;33;33188;-89
2022/05/03 02:20:00;;;;;;;;;;;;;;;14.22;59.32;99729.13;4357815;32;32791;-91
2022/05/03 02:23:05;;;;;;;2.53;1.92;;;;;;;14.33;58.93;99726.66;4377469;32;32724;-87
2022/05/03 02:26:16;;;;;;;4.45;3.15;;;;;;;14.27;58.92;99737.66;4353732;32;32589;-86
2022/05/03 02:28:56;;;;;;;3.62;2.78;;;;;;;14.19;59.14;99734.59;4358527;32;33139;-86
2022/05/03 02:31:51;;;;;;;2.33;2.12;;;;;;;14.03;59.38;99729.34;4353375;32;33876;-86
2022/05/03 02:34:47;;;;;;;4.37;2.62;;;;;;;14.04;59.17;99737.22;4379169;32;34381;-86
2022/05/03 02:37:17;;;;;;;3.92;2.58;;;;;;;13.90;59.84;99731.84;4353423;32;33206;-86
2022/05/03 02:39:51;;;;;;;2.65;2.35;;;;;;;14.00;59.63;99735.69;4353481;32;32757;-86
2022/05/03 02:42:21;;;;;;;6.50;2.33;;;;;;;13.96;59.49;99731.53;4365996;32;32591;-86
2022/05/03 02:44:49;;;;;;;4.07;2.90;;;;;;;13.92;59.73;99737.09;4364785;32;33689;-88
2022/05/03 02:47:57;;;;;;;3.65;2.25;;;;;;;14.02;59.35;99730.31;4338898;32;32746;-88
2022/05/03 02:50:39;;;;;;;3.05;2.75;;;;;;;14.05;58.94;99735.41;4357220;32;32850;-87
2022/05/03 02:53:09;;;;;;;3.10;2.35;;;;;;;13.87;59.13;99736.50;4363647;32;33812;-87
2022/05/03 02:56:02;;;;;;;3.00;2.12;;;;;;;13.80;59.12;99736.84;4364578;32;33511;-87
2022/05/03 02:58:29;;;;;;;;;;;;;;;13.91;58.67;99738.91;4364115;32;32835;-86
2022/05/03 03:04:01;;;;;;;2.80;1.95;;;;;;;13.82;58.57;99734.13;4376639;32;33397;-87
2022/05/03 03:06:42;;;;;;;2.87;2.30;;;;;;;13.78;58.62;99737.91;4359672;32;32503;-88
2022/05/03 03:09:15;;;;;;;2.62;2.22;;;;;;;13.66;58.84;99735.94;4350620;32;34166;-88
2022/05/03 03:11:55;;;;;;;2.87;2.30;;;;;;;13.51;59.20;99735.88;4351803;32;31933;-90
2022/05/03 03:14:43;;;;;;;2.97;2.20;;;;;;;13.55;59.08;99737.41;4350325;32;33469;-88
2022/05/03 03:17:12;;;;;;;2.83;2.42;;;;;;;13.69;58.59;99738.44;4352141;32;30841;-91
2022/05/03 03:19:43;;;;;;;2.85;2.47;;;;;;;13.57;58.91;99739.97;4352049;32;34086;-90
2022/05/03 03:22:14;;;;;;;3.03;2.57;;;;;;;13.65;58.67;99731.59;4355897;32;34445;-88
2022/05/03 03:24:43;;;;;;;5.28;3.10;;;;;;;13.58;58.95;99729.28;4360871;32;33694;-90
2022/05/03 03:27:12;;;;;;;3.20;2.65;;;;;;;13.51;59.12;99730.56;4334533;33;32748;-90
2022/05/03 03:29:41;;;;;;;3.85;2.80;;;;;;;13.27;60.16;99737.25;4342219;32;33505;-90
2022/05/03 03:32:09;;;;;;;2.92;2.50;;;;;;;13.45;59.79;99735.38;4348744;32;34342;-89
2022/05/03 03:34:41;;;;;;;3.50;2.85;;;;;;;13.27;60.45;99734.59;4349730;32;33951;-90
2022/05/03 03:37:11;;;;;;;4.18;3.00;;;;;;;13.13;60.62;99734.47;4323730;32;33096;-90
2022/05/03 03:39:39;;;;;;;2.85;2.58;;;;;;;13.25;60.04;99739.16;4336446;32;32531;-90
2022/05/03 03:42:07;;;;;;;3.50;2.33;;;;;;;13.18;60.13;99740.38;4349381;32;34638;-90
2022/05/03 03:44:35;;;;;;;3.72;2.50;;;;;;;13.33;59.48;99734.25;4336346;32;33936;-90
2022/05/03 03:47:05;;;;;;;4.93;3.08;;;;;;;13.22;59.62;99739.31;4349384;32;34475;-90
2022/05/03 03:49:39;;;;;;;3.58;2.60;;;;;;;13.31;59.35;99744.09;4337580;32;32659;-90
2022/05/03 03:52:10;;;;;;;4.80;2.97;;;;;;;13.19;59.76;99747.38;4342804;32;34022;-91
2022/05/03 03:54:47;;;;;;;3.20;2.50;;;;;;;13.33;59.58;99747.50;4335155;32;32631;-90
2022/05/03 03:57:24;;;;;;;6.28;3.03;;;;;;;13.14;60.39;99747.63;4351601;32;33995;-90
2022/05/03 03:59:53;;;;;;;3.30;2.42;;;;;;;13.18;60.31;99751.00;4337519;32;32232;-91
2022/05/03 04:02:22;;;;;;;3.12;2.72;;;;;;;13.17;60.40;99754.59;4349395;32;32697;-91
2022/05/03 04:04:54;;;;;;;;;;;;;;;13.20;60.26;99754.44;4338421;32;33250;-86
2022/05/03 04:07:23;;;;;;;6.57;3.22;;;;;;;13.37;59.83;99753.50;4337550;32;34105;-87
2022/05/03 04:09:51;;;;;;;2.87;2.53;;;;;;;13.31;60.02;99758.22;4348987;32;32523;-86
2022/05/03 04:12:22;;;;;;;3.87;2.75;;;;;;;13.35;59.95;99750.09;4349729;32;34031;-87
2022/05/03 04:14:52;;;;;;;4.25;2.50;;;;;;;13.41;59.85;99750.59;4337352;32;32212;-86
2022/05/03 04:17:20;;;;;;;3.90;2.87;;;;;;;13.61;59.67;99756.56;4338055;32;33705;-89
2022/05/03 04:19:50;;;;;;;6.93;3.47;;;;;;;13.51;60.16;99757.09;4335059;32;33419;-90
2022/05/03 04:22:31;;;;;;;10.65;3.37;;;;;;;13.71;59.88;99757.75;4347059;32;33711;-90
2022/05/03 04:25:01;;;;;;;3.92;3.00;;;;;;;13.86;59.76;99761.31;4337906;32;33926;-87
2022/05/03 04:27:30;;;;;;;5.95;3.03;;;;;;;13.52;61.21;99757.94;4325395;32;32545;-87
2022/05/03 04:30:02;;;;;;;5.75;3.25;;;;;;;13.68;60.88;99757.94;4349936;32;33384;-87
2022/05/03 04:32:33;;;;;;;3.45;2.78;;;;;;;13.79;60.43;99758.19;4350380;32;33940;-87
2022/05/03 04:35:03;;;;;;;4.15;3.42;;;;;;;14.05;58.66;99760.19;4345312;32;33021;-90
2022/05/03 04:37:31;;;;;;;7.57;3.53;;;;;;;13.88;59.78;99755.00;4330543;32;33146;-89
2022/05/03 04:40:01;;;;;;;5.00;3.28;;;;;;;13.80;59.80;99762.53;4324527;32;32246;-89
2022/05/03 04:42:32;;;;;;;5.72;2.85;;;;;;;13.96;59.10;99763.38;4349007;32;33553;-89
2022/05/03 04:45:05;;;;;;;7.60;2.97;;;;;;;14.09;58.87;99756.38;4348468;32;33572;-89
2022/05/03 04:47:37;;;;;;;4.50;3.55;;;;;;;14.26;58.36;99762.50;4348524;32;32919;-90
2022/05/03 04:50:07;;;;;;;8.40;3.47;;;;;;;14.51;57.72;99762.78;4325494;32;32057;-90
2022/05/03 04:52:37;;;;;;;4.10;3.10;;;;;;;14.74;57.94;99757.87;4358665;32;33994;-89
2022/05/03 04:55:07;;;;;;;4.12;3.28;;;;;;;14.72;58.25;99762.44;4333819;33;33611;-91
2022/05/03 04:57:56;;;;;;;8.00;3.33;;;;;;;14.80;57.90;99760.13;4308362;33;32349;-89
2022/05/03 05:00:39;;;;;;;6.15;3.60;;;;;;;15.32;56.38;99757.72;4323882;33;32142;-91
2022/05/03 05:03:09;;;;;;;8.45;3.72;;;;;;;15.31;56.72;99755.16;4327346;33;32580;-91
2022/05/03 05:05:39;;;;;;;5.60;3.47;;;;;;;15.52;57.28;99769.72;4323679;33;33696;-90
2022/05/03 05:08:11;;;;;;;6.82;3.17;;;;;;;15.68;55.69;99763.47;4324772;33;32692;-89
2022/05/03 05:10:44;;;;;;;5.87;3.62;;;;;;;15.62;55.19;99770.88;4314878;33;33028;-92
2022/05/03 05:13:14;;;;;;;4.30;2.72;;;;;;;15.53;55.95;99771.47;4327932;33;32731;-91
2022/05/03 05:15:46;;;;;;;5.37;3.20;;;;;;;15.52;55.87;99769.72;4327448;33;34214;-91
2022/05/03 05:18:51;;;;;;;5.85;3.15;;;;;;;15.16;56.98;99780.09;4327197;33;33364;-91
2022/05/03 05:21:24;;;;;;;6.25;3.25;;;;;;;15.63;56.06;99763.75;4326088;33;32745;-91
2022/05/03 05:24:11;;;;;;;5.25;2.95;;;;;;;16.23;54.25;99765.13;4332247;33;33103;-91
2022/05/03 05:26:41;;;;;;;7.18;3.33;;;;;;;16.49;53.43;99755.34;4321064;33;34387;-91
2022/05/03 05:29:16;;;;;;;4.82;2.95;;;;;;;16.57;54.46;99753.88;4324332;33;33946;-87
2022/05/03 05:31:49;;;;;;;5.47;3.33;;;;;;;16.83;52.53;99760.06;4340016;33;32342;-88
2022/05/03 05:37:15;;;;;;;4.85;3.35;;;;;;;17.00;52.91;99756.22;4350640;32;32450;-91
2022/05/03 05:39:58;;;;;;;8.38;2.85;;;;;;;17.24;51.97;99753.62;4315256;33;33419;-86
2022/05/03 05:42:28;;;;;;;5.10;3.33;;;;;;;17.27;51.19;99756.06;4318153;33;33313;-89
2022/05/03 05:44:56;;;;;;;8.88;3.42;;;;;;;17.30;51.21;99760.34;4308474;33;32435;-90
2022/05/03 05:47:25;;;;;;;8.75;4.32;;;;;;;17.40;50.88;99758.69;4309170;33;33272;-89
2022/05/03 05:49:56;;;;;;;6.37;3.47;;;;;;;17.47;50.87;99769.78;4309948;33;33253;-89
2022/05/03 05:55:19;;;;;;;8.50;3.90;;;;;;;17.83;51.63;99760.91;4324487;33;33048;-89
2022/05/03 05:57:47;;;;;;;5.75;3.42;;;;;;;17.84;51.00;99757.28;4302470;33;33262;-89
2022/05/03 06:00:18;;;;;;;8.18;3.78;;;;;;;17.93;50.36;99756.59;4307420;33;33184;-89
2022/05/03 06:02:50;;;;;;;4.10;3.40;;;;;;;18.40;48.77;99757.47;4308027;33;32666;-89
2022/05/03 06:05:18;;;;;;;7.10;4.25;;;;;;;18.72;49.22;99757.69;4305799;33;32815;-89
2022/05/03 06:07:46;;;;;;;6.22;3.60;;;;;;;18.51;48.39;99754.81;4309593;33;33836;-90
2022/05/03 06:10:15;;;;;;;7.90;4.47;;;;;;;18.81;48.25;99756.97;4321817;33;35097;-89
2022/05/03 06:13:02;;;;;;;6.45;3.72;;;;;;;19.04;48.60;99755.16;4309497;33;33387;-89
2022/05/03 06:16:11;;;;;;;6.05;4.00;;;;;;;19.24;48.48;99750.91;4315702;33;33547;-90
2022/05/03 06:18:40;;;;;;;7.20;4.05;;;;;;;19.56;48.37;99750.09;4296947;33;34650;-89
2022/05/03 06:21:11;;;;;;;7.62;4.93;;;;;;;19.47;46.72;99746.38;4321916;33;32439;-90
2022/05/03 06:24:01;;;;;;;8.50;4.97;;;;;;;19.54;46.19;99750.22;4321747;33;32300;-89
2022/05/03 06:26:37;;;;;;;7.47;4.47;;;;;;;19.29;45.78;99754.06;4320060;33;33309;-89
2022/05/03 06:29:09;;;;;;;7.25;4.43;;;;;;;19.91;43.84;99755.28;4319941;33;32276;-89
2022/05/03 06:31:42;;;;;;;5.57;4.25;;;;;;;19.81;43.98;99757.00;4321468;33;32730;-89
2022/05/03 06:34:35;;;;;;;9.38;4.60;;;;;;;20.06;42.81;99753.97;4322385;33;32109;-90
2022/05/03 06:37:05;;;;;;;6.15;4.65;;;;;;;20.26;43.41;99754.12;4319543;33;32416;-89
2022/05/03 06:39:38;;;;;;;6.00;4.55;;;;;;;19.84;44.32;99757.59;4323850;33;32601;-90
2022/05/03 06:42:09;;;;;;;10.00;4.18;;;;;;;20.11;43.68;99756.28;4330171;33;33595;-90
2022/05/03 06:44:37;;;;;;;9.25;4.95;;;;;;;20.28;43.31;99757.56;4323742;33;31991;-90
2022/05/03 06:47:07;;;;;;;7.57;5.87;;;;;;;20.42;43.90;99758.06;4335099;33;33083;-90
2022/05/03 06:49:37;;;;;;;7.53;5.18;;;;;;;20.46;43.69;99755.97;4330845;33;30937;-88
2022/05/03 06:52:07;;;;;;;9.43;5.27;;;;;;;19.95;44.50;99762.94;4335691;33;32815;-90
2022/05/03 06:54:35;;;;;;;6.40;3.45;;;;;;;20.58;43.25;99754.94;4331129;33;32849;-90
2022/05/03 06:57:04;;;;;;;6.65;4.93;;;;;;;20.47;42.36;99757.72;4334400;33;32581;-90
2022/05/03 06:59:32;;;;;;;5.55;3.67;;;;;;;20.45;41.92;99757.78;4334505;33;32980;-90
2022/05/03 07:02:01;;;;;;;7.28;3.60;;;;;;;20.88;41.33;99751.44;4334890;33;33998;-90
2022/05/03 07:04:30;;;;;;;4.00;3.55;;;;;;;21.07;40.73;99749.81;4335472;33;32421;-90
2022/05/03 07:06:58;;;;;;;5.22;3.85;;;;;;;21.11;41.08;99751.25;4335666;33;32732;-90
2022/05/03 07:09:26;;;;;;;4.25;3.00;;;;;;;21.50;40.64;99744.19;4335798;33;32661;-90
2022/05/03 07:11:54;;;;;;;5.35;3.03;;;;;;;21.44;40.57;99744.75;4335419;33;33196;-90
2022/05/03 07:14:22;;;;;;;3.70;2.97;;;;;;;21.43;39.76;99751.13;4335340;33;32694;-90
2022/05/03 07:16:51;;;;;;;6.75;2.92;;;;;;;21.52;37.96;99744.91;4348222;32;32849;-90
2022/05/03 07:22:45;;;;;;;5.25;3.42;;;;;;;21.62;38.91;99748.47;4347628;33;32565;-90
2022/05/03 07:25:19;;;;;;;4.80;2.65;;;;;;;21.91;38.29;99747.66;4347322;33;33389;-90
2022/05/03 07:27:48;;;;;;;4.00;2.53;;;;;;;21.84;37.96;99749.19;4335254;33;32791;-90
2022/05/03 07:30:16;;;;;;;7.97;2.83;;;;;;;22.05;38.10;99749.91;4335344;33;33078;-90
2022/05/03 07:32:45;;;;;;;3.10;2.30;;;;;;;22.39;37.62;99750.34;4335320;33;32412;-90
2022/05/03 07:35:14;;;;;;;3.65;2.10;;;;;;;22.85;35.92;99742.47;4328192;33;32403;-90
2022/05/03 07:37:44;;;;;;;2.25;2.05;;;;;;;22.89;35.15;99742.06;4347333;33;34000;-90
2022/05/03 07:40:12;;;;;;;6.03;2.47;;;;;;;22.05;34.97;99744.53;4325745;33;33321;-89
2022/05/03 07:42:45;;;;;;;6.62;2.42;;;;;;;21.64;36.22;99753.69;4347606;33;33356;-90
2022/05/03 07:45:15;;;;;;;4.60;3.20;;;;;;;22.04;36.39;99750.06;4327620;33;33656;-90
2022/05/03 07:47:43;;;;;;;8.15;2.50;;;;;;;21.84;35.54;99744.69;4321049;33;33304;-90
2022/05/03 07:50:11;;;;;;;6.22;2.42;;;;;;;22.41;35.06;99747.53;4333087;33;33727;-90
2022/05/03 07:52:39;;;;;;;6.75;3.00;;;;;;;22.92;35.75;99751.66;4347322;33;33472;-90
2022/05/03 07:55:08;;;;;;;9.95;3.33;;;;;;;22.98;35.08;99740.31;4347297;33;33379;-90
2022/05/03 07:57:37;;;;;;;5.05;2.72;;;;;;;22.85;34.95;99739.78;4332410;33;34090;-90
2022/05/03 08:00:10;;;;;;;2.55;2.35;;;;;;;23.05;33.41;99741.41;4347616;33;33912;-90
2022/05/03 08:02:40;;;;;;;11.27;2.78;;;;;;;22.95;34.15;99740.59;4347166;33;33498;-90
2022/05/03 08:05:10;;;;;;;7.70;2.67;;;;;;;23.61;34.79;99736.88;4334815;33;32563;-90
2022/05/03 08:07:41;;;;;;;4.18;2.17;;;;;;;23.48;33.93;99737.22;4335103;33;33166;-90
2022/05/03 08:10:13;;;;;;;2.70;2.33;;;;;;;23.79;33.97;99737.78;4347043;33;33419;-90
2022/05/03 08:12:50;;;;;;;3.62;2.53;;;;;;;24.13;34.22;99746.00;4334702;33;33033;-90
2022/05/03 08:15:22;;;;;;;3.42;2.08;;;;;;;23.94;31.48;99736.22;4327922;33;32737;-90
2022/05/03 08:17:56;;;;;;;6.12;2.42;;;;;;;23.76;32.82;99736.22;4331011;33;31998;-90
2022/05/03 08:20:24;;;;;;;4.15;2.75;;;;;;;23.79;33.98;99742.31;4346692;33;34625;-90
2022/05/03 08:22:59;;;;;;;3.50;2.30;;;;;;;23.81;32.33;99743.00;4334837;33;33127;-90
2022/05/03 08:25:32;;;;;;;2.87;2.22;;;;;;;24.21;32.25;99738.00;4344672;33;33109;-90
2022/05/03 08:28:03;;;;;;;3.53;2.05;;;;;;;24.50;31.92;99742.28;4339531;33;33871;-86
2022/05/03 08:30:35;;;;;;;4.12;2.65;;;;;;;24.48;33.16;99742.44;4346953;33;33138;-86
2022/05/03 08:33:04;;;;;;;3.20;2.20;;;;;;;24.49;32.53;99744.13;4346865;33;33100;-86
2022/05/03 08:35:37;;;;;;;6.65;2.60;;;;;;;24.41;30.83;99740.53;4331847;33;32608;-86
2022/05/03 08:43:45;;;;;;;4.75;1.98;;;;;;;24.59;31.52;99737.78;4334669;33;33316;-86
2022/05/03 08:46:15;;;;;;;5.12;2.28;;;;;;;24.47;31.75;99735.34;4334477;33;33057;-86
2022/05/03 08:48:47;;;;;;;3.28;2.20;;;;;;;25.07;31.58;99734.56;4334531;33;33428;-86
2022/05/03 08:51:23;;;;;;;2.50;1.85;;;;;;;24.95;30.22;99736.66;4322427;33;33249;-86
2022/05/03 08:53:56;;;;;;;2.10;1.58;;;;;;;25.26;29.92;99725.34;4342570;33;32840;-86
2022/05/03 08:56:30;;;;;;;5.55;2.35;;;;;;;25.13;31.38;99724.94;4328007;33;34755;-84
2022/05/03 08:59:00;;;;;;;4.90;2.20;;;;;;;24.99;29.29;99729.91;4345351;33;32424;-84
2022/05/03 09:01:36;;;;;;;2.87;1.92;;;;;;;24.78;30.44;99726.75;4325997;33;32843;-84
2022/05/03 09:04:06;;;;;;;2.62;1.90;;;;;;;24.55;32.11;99734.56;4315373;33;32416;-84
2022/05/03 09:06:47;;;;;;;2.53;2.20;;;;;;;24.09;31.21;99741.06;4334760;33;32784;-85
2022/05/03 09:09:20;;;;;;;4.75;2.37;;;;;;;24.73;32.08;99729.94;4339287;33;33586;-84
2022/05/03 09:11:53;;;;;;;6.28;1.92;;;;;;;25.31;29.34;99728.41;4332424;33;32420;-84
2022/05/03 09:14:42;;;;;;;3.33;2.20;;;;;;;25.26;30.80;99726.19;4327134;33;33454;-84
2022/05/03 09:17:11;;;;;;;4.65;2.15;;;;;;;25.44;28.73;99727.94;4346460;32;33517;-84
2022/05/03 09:19:42;;;;;;;6.15;2.17;;;;;;;25.61;31.76;99724.25;4346087;33;33875;-84
2022/05/03 09:25:12;;;;;;;3.12;2.30;;;;;;;25.75;28.80;99710.13;4344716;33;34619;-85
2022/05/03 09:27:43;;;;;;;3.22;2.00;;;;;;;25.31;32.24;99719.47;4329384;33;34176;-85
2022/05/03 09:30:15;;;;;;;2.92;2.00;;;;;;;25.84;28.67;99712.84;4346471;33;34563;-84
2022/05/03 09:32:47;;;;;;;1.50;1.40;;;;;;;26.13;31.18;99707.78;4346454;33;34805;-85
2022/05/03 09:35:35;;;;;;;5.65;2.75;;;;;;;25.91;29.97;99711.16;4345133;33;34047;-85
2022/05/03 09:38:04;;;;;;;2.47;2.08;;;;;;;25.57;28.93;99703.97;4333869;33;32306;-85
2022/05/03 09:40:45;;;;;;;2.97;1.90;;;;;;;25.97;29.93;99707.78;4328634;33;33965;-85
2022/05/03 09:43:19;;;;;;;3.65;2.37;;;;;;;26.79;26.79;99705.88;4319743;33;33328;-85
2022/05/03 09:46:07;;;;;;;2.03;1.83;;;;;;;26.48;27.14;99705.75;4344426;33;33883;-85
2022/05/03 09:48:55;;;;;;;3.08;2.35;;;;;;;26.20;28.74;99703.37;4343897;33;33343;-85
2022/05/03 09:51:24;;;;;;;4.37;2.08;;;;;;;26.38;29.31;99710.47;4326241;33;33814;-85
2022/05/03 09:53:59;;;;;;;1.95;1.70;;;;;;;26.83;31.29;99698.25;4345903;33;32954;-84
2022/05/03 09:56:31;;;;;;;4.37;2.85;;;;;;;27.23;27.70;99695.38;4327280;33;33668;-84
2022/05/03 09:59:03;;;;;;;2.37;1.98;;;;;;;27.40;30.00;99690.75;4322033;33;32286;-85
2022/05/03 10:01:31;;;;;;;2.47;2.17;;;;;;;27.72;26.04;99689.69;4328967;33;32030;-84
2022/05/03 10:04:06;;;;;;;2.03;1.92;;;;;;;27.76;25.34;99682.88;4344685;33;33252;-84
2022/05/03 10:06:41;;;;;;;4.68;2.40;;;;;;;26.83;27.10;99688.25;4336667;33;33829;-85
2022/05/03 10:09:10;;;;;;;4.87;2.30;;;;;;;27.03;27.84;99677.84;4331555;33;33413;-85
2022/05/03 10:11:40;;;;;;;3.58;2.05;;;;;;;26.63;26.96;99682.34;4331779;33;33189;-85
2022/05/03 10:14:11;;;;;;;3.15;2.62;;;;;;;26.26;26.04;99678.34;4329761;33;33858;-86
2022/05/03 10:22:24;;;;;;;6.05;3.25;;;;;;;25.59;27.28;99680.34;4346512;33;34404;-86
2022/05/03 10:24:56;;;;;;;2.72;2.35;;;;;;;25.29;27.57;99679.06;4333944;33;32689;-86
2022/05/03 10:27:25;;;;;;;2.95;2.20;;;;;;;26.45;25.96;99670.91;4333377;33;33180;-86
2022/05/03 10:30:28;;;;;;;2.85;2.55;;;;;;;26.04;27.64;99673.63;4345949;33;32428;-86
2022/05/03 10:33:19;;;;;;;6.95;2.70;;;;;;;26.35;27.49;99681.03;4319010;33;32919;-85
2022/05/03 10:35:50;;;;;;;4.40;2.10;;;;;;;26.63;26.33;99667.97;4336049;33;32872;-85
2022/05/03 10:38:37;;;;;;;3.05;2.35;;;;;;;26.90;24.62;99662.12;4348081;33;34354;-85
2022/05/03 10:41:11;;;;;;;3.08;2.10;;;;;;;27.01;23.62;99658.19;4348282;33;34098;-85
2022/05/03 10:43:40;;;;;;;3.15;1.80;;;;;;;27.04;24.54;99657.84;4348336;33;33895;-85
2022/05/03 10:46:15;;;;;;;2.22;1.80;;;;;;;26.69;26.97;99670.84;4348351;33;33416;-85
2022/05/03 10:48:43;;;;;;;4.22;2.20;;;;;;;26.72;27.24;99672.34;4348261;33;33778;-85
2022/05/03 10:51:12;;;;;;;1.67;1.55;;;;;;;26.18;27.00;99667.53;4348220;33;33783;-85
2022/05/03 10:53:58;;;;;;;3.28;1.98;;;;;;;26.19;26.42;99668.38;4348233;33;33654;-85
2022/05/03 10:56:29;;;;;;;2.25;2.00;;;;;;;26.07;26.88;99677.88;4335838;33;33363;-85
2022/05/03 10:59:16;;;;;;;2.42;2.22;;;;;;;25.69;27.93;99675.63;4348122;33;33927;-86
2022/05/03 11:01:57;;;;;;;5.70;2.40;;;;;;;25.42;28.69;99686.72;4336064;33;33772;-85
2022/05/03 11:04:27;;;;;;;2.78;2.12;;;;;;;24.77;28.99;99690.81;4335718;33;32989;-85
2022/05/03 11:06:57;;;;;;;3.70;2.60;;;;;;;24.38;31.03;99689.56;4348009;33;34448;-85
2022/05/03 11:09:32;;;;;;;6.90;2.55;;;;;;;23.82;32.29;99690.75;4332755;33;33917;-87
2022/05/03 11:14:46;;;;;;;3.05;1.85;;;;;;;22.85;33.57;99688.63;4347050;33;33068;-87
2022/05/03 11:17:16;;;;;;;4.70;1.42;;;;;;;22.44;34.72;99688.03;4347473;33;33530;-87
2022/05/03 11:19:47;;;;;;;1.58;1.37;;;;;;;22.23;32.56;99683.69;4343993;32;32804;-87
2022/05/03 11:22:17;;;;;;;2.83;1.45;;;;;;;21.90;32.84;99684.12;4335234;33;32736;-87
2022/05/03 11:24:49;;;;;;;2.53;1.15;;;;;;;21.55;33.52;99674.78;4335478;33;32452;-87
2022/05/03 11:27:21;;;;;;;1.15;1.05;;;;;;;21.33;30.68;99670.53;4347429;33;33987;-87
2022/05/03 11:29:57;;;;;;;1.90;1.00;;;;;;;21.49;29.74;99672.66;4338951;33;33648;-87
2022/05/03 11:32:39;;;;;;;1.02;0.70;;;;;;;21.68;27.87;99669.97;4315026;33;33573;-87
2022/05/03 11:35:16;;;;;;;4.78;1.50;;;;;;;21.78;28.86;99674.50;4320357;33;34002;-87
2022/05/03 11:37:47;;;;;;;3.03;1.00;;;;;;;21.91;28.90;99664.31;4306239;33;33200;-87
2022/05/03 11:40:20;;;;;;;4.68;1.35;;;;;;;21.46;32.31;99648.78;4316629;33;33139;-87
2022/05/03 11:42:49;;;;;;;1.35;1.08;;;;;;;20.97;33.66;99664.72;4347711;33;33437;-86
2022/05/03 11:45:24;;;;;;;5.82;1.00;;;;;;;21.03;30.71;99668.72;4332556;33;33186;-86
2022/05/03 11:48:04;;;;;;;1.50;1.40;;;;;;;21.13;33.01;99663.38;4335237;33;34805;-86
2022/05/03 11:56:26;;;;;;;3.05;1.30;;;;;;;21.56;33.60;99655.00;4346717;33;32800;-86
2022/05/03 11:59:02;;;;;;;5.70;1.20;;;;;;;21.53;32.02;99649.91;4345629;33;35270;-86
2022/05/03 12:01:36;;;;;;;2.65;0.90;;;;;;;21.77;32.92;99660.22;4333054;33;34095;-85
2022/05/03 12:04:07;;;;;;;0.98;0.88;;;;;;;22.28;33.76;99650.16;4333600;33;33239;-86
2022/05/03 12:06:43;;;;;;;1.10;0.98;;;;;;;22.75;32.34;99637.53;4333860;33;33057;-85
2022/05/03 12:09:18;;;;;;;2.28;1.00;;;;;;;23.12;29.21;99634.81;4333210;33;33312;-86
2022/05/03 12:14:43;;;;;;;2.12;1.00;;;;;;;23.95;27.08;99626.50;4345727;33;32525;-86
2022/05/03 12:17:12;;;;;;;3.80;0.90;;;;;;;24.28;26.25;99628.41;4344958;33;33370;-86
2022/05/03 12:19:43;;;;;;;3.70;1.05;;;;;;;24.37;29.03;99628.50;4319062;33;33327;-86
2022/05/03 12:22:15;;;;;;;3.03;1.12;;;;;;;24.57;27.31;99627.25;4345222;33;32617;-87
2022/05/03 12:24:47;;;;;;;0.98;0.80;;;;;;;24.62;28.36;99629.47;4342229;33;33346;-86
2022/05/03 12:27:16;;;;;;;2.95;1.58;;;;;;;24.90;29.52;99627.41;4340018;33;33604;-86
2022/05/03 12:29:47;;;;;;;3.25;1.25;;;;;;;24.99;26.90;99623.72;4329295;33;33077;-86
2022/05/03 12:32:19;;;;;;;4.85;1.80;;;;;;;25.14;26.51;99630.22;4340988;33;33080;-86
2022/05/03 12:34:58;;;;;;;1.80;1.33;;;;;;;25.44;26.42;99630.63;4342148;33;36009;-86
2022/05/03 12:37:27;;;;;;;1.23;1.08;;;;;;;25.40;25.52;99632.81;4337150;33;32366;-86
2022/05/03 12:40:00;;;;;;;1.52;1.42;;;;;;;25.20;25.78;99623.31;4330004;33;32465;-86
2022/05/03 12:42:41;;;;;;;3.47;1.48;;;;;;;25.29;24.66;99622.31;4343832;33;34009;-86
2022/05/03 12:45:22;;;;;;;1.87;1.70;;;;;;;25.41;27.30;99620.16;4332726;33;33428;-86
2022/05/03 12:50:36;;;;;;;2.53;1.60;;;;;;;25.48;25.05;99610.34;4340437;33;33871;-86
2022/05/03 12:53:14;;;;;;;3.30;1.27;;;;;;;25.78;25.63;99612.44;4345497;33;32773;-86
2022/05/03 12:55:42;;;;;;;2.53;1.52;;;;;;;25.95;25.72;99609.72;4343219;33;33166;-86
2022/05/03 12:58:27;;;;;;;2.60;1.42;;;;;;;25.71;26.49;99610.53;4334052;33;33199;-86
2022/05/03 13:01:00;;;;;;;1.83;1.40;;;;;;;25.61;26.67;99613.41;4331391;33;33413;-86